San Felipe, Texas
Current Conditions -  °F | °C
As of 5:15 PM on Sunday 21 Dec 2014 (Local Time) from KTME Reporting Station
Overcast Overcast  
Wind Chill: 15°   Ceiling: 2500
Heat Index: 15°   Visibility: 7mi
Dew Point: 10°   Wind: 6mph
Humidity: 72%   Direction: 160°SSE
Pressure: 29.95"   Gusts: NA
Location:  29.79°N, 96.1°W
Report Text: KTME 212315Z AUTO 16005KT 7SM OVC025 15/10 A2995 RMK AO2
Loading
Personal Weather Stations






























Interactive Weather Map New forecast layout! Learn more

10-Day Weather Forecast

Advertisements
Track Severe Weather on mobile